Terminal Aerodrome Forecast
Issued by NWS

Home | Current Version | Previous Version | Text Only | Print | Product List | Glossary On
Versions: 1 2 3 4 5 6 7 8 9 10 11 12 13 14 15 16 17 18 19 20 21
000
FTUS45 KTFX 221100
TAFCTB
TAF
KCTB 221134Z 2212/2312 02006KT P6SM SCT020 OVC035
     FM221500 03006KT P6SM -RA OVC025
     FM230100 05006KT 6SM -RA BR OVC010
     FM230500 05006KT 3SM -RA BR OVC003=

USA.gov is the U.S. government's official web portal to all federal, state and local government web resources and services.